Atomic City, Idaho
Current Conditions -  °F | °C
As of 11:53 AM on Friday 24 Oct 2014 (Local Time) from KIDA Reporting Station
Few Clouds Few Clouds  
Wind Chill: 61°   Ceiling: Unl
Heat Index: 61°   Visibility: 10mi
Dew Point: 39°   Wind: 7mph
Humidity: 44%   Direction: 260°W
Pressure: 30.16"   Gusts: NA
Location:  43.44°N, 112.81°W
Report Text: KIDA 241753Z 26006KT 10SM FEW085 16/04 A3016 RMK AO2 SLP190 T01610039 10161 20089 58001
Loading
Personal Weather Stations






























Interactive Weather Map
Tropical Storm Tracking
New forecast layout! Learn more

10-Day Weather Forecast

Advertisements
Track Severe Weather on mobile